Fort Myers, FL (33967)

1:31 PM EDT on July 03, 2015 (GMT -0400)
Carriedale | | Change Station
CLOSE
Current Station
Personal Weather Station
Location: Fort Myers, FL
Elevation: 16 ft
Nearby Weather Stations

Elev 16 ft 26.52 °N, 81.82 °W | Updated 6 minutes ago

Partly Cloudy
Partly Cloudy
93.2 °F
Feels Like 105 °F
N
0.0
Wind Variable Wind from ESE
Gusts 4.0 mph

Today
High -- | Low -- °F
--% Chance of Precip.
Yesterday
High -- | Low -- °F
Precip. -- in
6:38 AM 8:24 PM
Waning Gibbous, 97% visible
Pressure 30.09 in
Visibility 10.0 miles
Clouds Mostly Cloudy 4300 ft
Heat Index 105 °F
Dew Point 75 °F
Humidity 56%
Rainfall 0.00 in
Snow Depth Not available.
UV 8 out of 12
Pollen 3.70 out of 12
Air Quality Not available.
Flu Activity Not available.
METAR KRSW 031653Z 15006KT 10SM BKN043 32/22 A3009 RMK AO2 SLP187 T03170217

More Conditions Fewer Conditions

Pressure 30.09 in
Visibility 10.0 miles
Clouds Mostly Cloudy 4300 ft
Heat Index 105 °F
Dew Point 75 °F
Humidity 56%
Rainfall 0.00 in
Snow Depth Not available.
UV 8 out of 12
Pollen 3.70 out of 12
Air Quality Not available.
Flu Activity Not available.
METAR KRSW 031653Z 15006KT 10SM BKN043 32/22 A3009 RMK AO2 SLP187 T03170217

More Conditions Fewer Conditions

10-Day Weather Forecast

×

Almanac

Astronomy

Jul. 03, 2015 Rise Set
Actual Time
Civil Twilight
Nautical Twilight
Astronomical Twilight
Moon
Length of Visible Light
Length of Day
Tomorrow will be .
, % of the Moon is Illuminated

Today's Extremes

State Highs State Lows

Community

WunderPhotos

Upload Photos

1,834,727 photos uploaded!

WunderBlogs® & News

Nearby

Air Quality

  Air Quality AQ Index Pollutant
Not available.

Snow Depth

Station Depth Elevation

Earthquake Activity

City Distance Mag. Time & Date
Minimum magnitude displayed is 2.5.

Coastal Water Temperatures

Place Temperature

Stations

Nearby Weather Stations

Station Location Temp. Windchill Dew Point Humidity Wind Precip. Elev Updated Type